EmailTwitter


Surface observations / France / LFPO (07149)

Regions: Quebec | Canada | USA | Europe | France | UK | Elsewhere
Station
Display
Info & Location for LFPO (07149) | Help decoding METAR

Weather Conditions observed on 2018/02/24 at 04:00 UTC at PARIS/ORLY, FR (LFPO)

Temperature: -2.0 Celsius.

Dewpoint: -8.0 Celsius.

Relative Humidity: 64%

Windchill Factor: -8.

Winds: Northeast at 20 km/h or 11 knots.

Mean Sea level Pressure: 101.40 kilopascals.

Coded METAR:

LFPO 240400Z 05011KT CAVOK M02/M08 Q1014 NOSIG=